createdAt,value
2023-04-26T00:02:53.699Z,80.13
2023-04-26T00:07:59.690Z,79.94
2023-04-26T00:13:03.877Z,80.30
2023-04-26T00:18:08.148Z,78.72
2023-04-26T00:23:13.893Z,78.75
2023-04-26T00:28:17.998Z,78.72
2023-04-26T00:33:22.305Z,78.35
2023-04-26T00:38:28.117Z,77.51
2023-04-26T00:43:32.314Z,77.48
2023-04-26T00:48:37.932Z,76.34
2023-04-26T00:53:44.431Z,74.33
2023-04-26T00:58:48.934Z,73.92
2023-04-26T01:03:53.703Z,72.55
2023-04-26T01:09:02.109Z,73.41
2023-04-26T01:14:08.834Z,73.10
2023-04-26T01:19:13.700Z,73.09
2023-04-26T01:24:19.467Z,72.58
2023-04-26T01:29:24.547Z,73.10
2023-04-26T01:34:28.739Z,74.81
2023-04-26T01:39:34.809Z,74.51
2023-04-26T01:44:39.799Z,74.54
2023-04-26T01:49:44.139Z,74.97
2023-04-26T01:54:49.802Z,74.16
2023-04-26T01:59:56.208Z,74.13
2023-04-26T02:05:00.480Z,74.73
2023-04-26T02:10:06.715Z,74.88
2023-04-26T02:15:11.839Z,75.80
2023-04-26T02:20:16.768Z,76.50
2023-04-26T02:25:22.619Z,78.49
2023-04-26T02:30:26.999Z,79.93
2023-04-26T02:35:31.385Z,80.45
2023-04-26T02:40:37.438Z,82.08
2023-04-26T02:45:43.769Z,83.62
2023-04-26T02:50:50.804Z,83.40
2023-04-26T02:55:56.501Z,85.36
2023-04-26T03:01:01.881Z,85.69
2023-04-26T03:06:06.874Z,86.65
2023-04-26T03:11:12.536Z,87.85
2023-04-26T03:16:17.477Z,88.48
2023-04-26T03:21:22.095Z,90.46
2023-04-26T03:26:27.746Z,90.76
2023-04-26T03:31:32.145Z,92.13
2023-04-26T03:36:36.540Z,92.70
2023-04-26T03:41:43.823Z,93.52
2023-04-26T03:46:50.117Z,93.17
2023-04-26T03:51:54.495Z,92.68
2023-04-26T03:57:00.502Z,93.78
2023-04-26T04:02:04.730Z,92.18
2023-04-26T04:07:09.146Z,91.82
2023-04-26T04:12:15.065Z,90.59
2023-04-26T04:17:20.604Z,90.70
2023-04-26T04:22:25.368Z,91.68
2023-04-26T04:27:32.277Z,90.93
2023-04-26T04:32:37.231Z,89.84
2023-04-26T04:37:41.874Z,88.25
2023-04-26T04:42:47.781Z,87.11
2023-04-26T04:47:56.493Z,86.25
2023-04-26T04:53:01.603Z,83.41
2023-04-26T04:58:07.430Z,76.71
2023-04-26T05:03:12.291Z,73.50
2023-04-26T05:08:16.998Z,71.47
2023-04-26T05:13:23.025Z,69.05
2023-04-26T05:18:27.248Z,67.31
2023-04-26T05:23:32.310Z,69.64
2023-04-26T05:28:38.019Z,69.27
2023-04-26T05:34:17.245Z,67.19
2023-04-26T05:39:26.626Z,66.53
2023-04-26T05:44:32.591Z,64.75
2023-04-26T05:49:37.327Z,61.59
2023-04-26T05:54:41.761Z,54.10
2023-04-26T05:59:48.356Z,50.53
2023-04-26T06:04:54.553Z,47.54
2023-04-26T06:09:59.282Z,42.90
2023-04-26T06:15:05.381Z,42.76
2023-04-26T06:20:12.089Z,43.75
2023-04-26T06:25:16.752Z,39.24
2023-04-26T06:30:22.800Z,37.38
2023-04-26T06:35:27.967Z,36.50
2023-04-26T06:40:32.690Z,38.55
2023-04-26T06:45:39.656Z,39.60
2023-04-26T06:50:44.880Z,40.83
2023-04-26T06:55:49.381Z,48.39
2023-04-26T07:00:55.239Z,51.48
2023-04-26T07:05:59.560Z,41.90
2023-04-26T07:11:04.039Z,42.05
2023-04-26T07:16:10.264Z,48.54
2023-04-26T07:21:15.072Z,49.91
2023-04-26T07:26:19.272Z,48.71
2023-04-26T07:31:25.592Z,49.96
2023-04-26T07:36:29.938Z,51.10
2023-04-26T07:41:34.321Z,42.95
2023-04-26T07:46:39.854Z,44.87
2023-04-26T07:51:45.869Z,50.96
2023-04-26T07:56:50.500Z,52.60
2023-04-26T08:01:56.353Z,52.33
2023-04-26T08:07:01.740Z,48.65
2023-04-26T08:12:06.790Z,48.87
2023-04-26T08:17:12.583Z,43.99
2023-04-26T08:22:17.260Z,41.63
2023-04-26T08:27:21.770Z,40.23
2023-04-26T08:32:27.745Z,38.04
2023-04-26T08:37:31.958Z,40.84
2023-04-26T08:42:41.271Z,40.38
2023-04-26T08:47:50.171Z,37.86
2023-04-26T08:52:54.821Z,39.26
2023-04-26T08:57:59.887Z,44.58
2023-04-26T09:03:05.866Z,45.87
2023-04-26T09:08:10.711Z,42.58
2023-04-26T09:13:15.852Z,41.12
2023-04-26T09:18:23.168Z,43.75
2023-04-26T09:23:27.517Z,41.91
2023-04-26T09:28:31.708Z,39.83
2023-04-26T09:33:38.098Z,40.31
2023-04-26T09:38:44.375Z,41.69
2023-04-26T09:43:51.672Z,39.65
2023-04-26T09:49:04.050Z,40.68
2023-04-26T09:54:08.221Z,35.23
2023-04-26T09:59:12.652Z,37.26
2023-04-26T10:04:18.787Z,38.18
2023-04-26T10:09:23.171Z,38.80
2023-04-26T10:14:27.801Z,39.31
2023-04-26T10:19:35.543Z,39.88
2023-04-26T10:24:39.923Z,37.63
2023-04-26T10:30:09.662Z,39.19
2023-04-26T10:35:17.444Z,40.91
2023-04-26T10:40:26.031Z,39.52
2023-04-26T10:45:30.919Z,40.52
2023-04-26T10:51:12.797Z,46.34
2023-04-26T10:56:54.535Z,44.02
2023-04-26T11:02:02.398Z,42.38
2023-04-26T11:07:08.579Z,40.68
2023-04-26T11:12:13.878Z,38.06
2023-04-26T11:17:18.453Z,35.18
2023-04-26T11:22:24.977Z,36.95
2023-04-26T11:27:29.569Z,36.65
2023-04-26T11:32:35.068Z,38.39
2023-04-26T11:37:40.756Z,39.94
2023-04-26T11:42:46.407Z,44.03
2023-04-26T11:47:50.999Z,42.11
2023-04-26T11:52:58.482Z,39.31
2023-04-26T11:58:04.179Z,37.11
2023-04-26T12:03:11.306Z,36.72
2023-04-26T12:08:18.470Z,33.37
2023-04-26T12:13:23.114Z,32.55
2023-04-26T12:18:32.579Z,32.89
2023-04-26T12:23:42.107Z,33.21
2023-04-26T12:28:47.120Z,33.91
2023-04-26T12:33:51.443Z,36.57
2023-04-26T12:38:58.205Z,39.05
2023-04-26T12:44:02.686Z,37.95
2023-04-26T12:49:07.753Z,38.38
2023-04-26T12:54:13.372Z,35.04
2023-04-26T12:59:18.020Z,35.05
2023-04-26T13:04:22.448Z,37.31
2023-04-26T13:09:28.635Z,38.50
2023-04-26T13:14:33.704Z,37.81
2023-04-26T13:19:38.031Z,40.35
2023-04-26T13:24:45.127Z,40.89
2023-04-26T13:29:49.568Z,35.96
2023-04-26T13:34:54.670Z,31.91
2023-04-26T13:40:01.352Z,32.69
2023-04-26T13:45:09.539Z,33.54
2023-04-26T13:50:14.182Z,41.40
2023-04-26T13:55:19.976Z,44.91
2023-04-26T14:00:24.849Z,45.89
2023-04-26T14:05:29.207Z,39.65
2023-04-26T14:10:34.821Z,36.33
2023-04-26T14:15:39.169Z,31.52
2023-04-26T14:20:43.852Z,32.02
2023-04-26T14:25:53.121Z,35.60
2023-04-26T14:30:57.430Z,38.77
2023-04-26T14:36:01.977Z,39.44
2023-04-26T14:41:07.599Z,33.06
2023-04-26T14:46:11.886Z,32.49
2023-04-26T14:51:16.316Z,35.14
2023-04-26T14:56:22.194Z,35.31
2023-04-26T15:01:26.751Z,33.19
2023-04-26T15:06:33.648Z,32.51
2023-04-26T15:11:39.195Z,31.78
2023-04-26T15:16:43.612Z,30.32
2023-04-26T15:21:48.039Z,32.54
2023-04-26T15:26:53.645Z,33.57
2023-04-26T15:31:58.032Z,33.80
2023-04-26T15:37:02.256Z,34.46
2023-04-26T15:42:07.965Z,35.36
2023-04-26T15:47:12.514Z,35.76
2023-04-26T15:52:17.404Z,36.99
2023-04-26T15:57:23.291Z,37.70
2023-04-26T16:02:28.194Z,38.88
2023-04-26T16:07:33.072Z,39.19
2023-04-26T16:12:40.062Z,43.99
2023-04-26T16:17:45.055Z,47.64
2023-04-26T16:22:50.126Z,49.91
2023-04-26T16:27:55.778Z,51.14
2023-04-26T16:32:59.982Z,50.18
2023-04-26T16:38:04.221Z,50.54
2023-04-26T16:43:14.393Z,49.30
2023-04-26T16:48:19.166Z,48.87
2023-04-26T16:53:23.710Z,47.43
2023-04-26T16:58:29.230Z,48.75
2023-04-26T17:03:33.418Z,50.97
2023-04-26T17:08:37.935Z,50.65
2023-04-26T17:13:43.821Z,49.85
2023-04-26T17:18:48.042Z,47.36
2023-04-26T17:23:52.427Z,48.29
2023-04-26T17:28:58.030Z,47.06
2023-04-26T17:34:04.732Z,46.55
2023-04-26T17:39:09.582Z,48.85
2023-04-26T17:44:15.170Z,48.22
2023-04-26T17:49:21.159Z,49.52
2023-04-26T17:54:26.036Z,49.41
2023-04-26T17:59:31.863Z,50.71
2023-04-26T18:04:36.418Z,51.61
2023-04-26T18:09:40.729Z,52.87
2023-04-26T18:14:46.466Z,52.34
2023-04-26T18:19:51.147Z,53.04
2023-04-26T18:24:55.401Z,53.70
2023-04-26T18:30:02.232Z,53.61
2023-04-26T18:35:07.647Z,54.32
2023-04-26T18:40:12.914Z,54.26
2023-04-26T18:45:18.719Z,55.38
2023-04-26T18:50:23.054Z,56.07
2023-04-26T18:55:27.287Z,55.94
2023-04-26T19:00:33.834Z,56.44
2023-04-26T19:05:41.891Z,56.76
2023-04-26T19:10:46.061Z,57.80
2023-04-26T19:15:52.079Z,57.74
2023-04-26T19:20:56.413Z,57.62
2023-04-26T19:26:05.338Z,57.89
2023-04-26T19:31:10.953Z,57.30
2023-04-26T19:36:15.120Z,57.70
2023-04-26T19:41:19.243Z,58.22
2023-04-26T19:46:25.075Z,58.41
2023-04-26T19:51:29.637Z,59.60
2023-04-26T19:56:34.014Z,60.09
2023-04-26T20:01:39.822Z,60.56
2023-04-26T20:06:44.413Z,59.83
2023-04-26T20:11:49.872Z,58.72
2023-04-26T20:16:55.924Z,58.76
2023-04-26T20:22:00.137Z,58.14
2023-04-26T20:27:04.794Z,59.59
2023-04-26T20:32:10.604Z,59.17
2023-04-26T20:37:15.130Z,58.65
2023-04-26T20:42:19.459Z,60.02
2023-04-26T20:47:25.087Z,61.10
2023-04-26T20:52:29.675Z,61.57
2023-04-26T20:57:33.832Z,61.96
2023-04-26T21:02:39.853Z,63.01
2023-04-26T21:07:44.376Z,63.42
2023-04-26T21:12:48.793Z,64.17
2023-04-26T21:17:54.729Z,65.25
2023-04-26T21:22:59.201Z,65.08
2023-04-26T21:28:03.518Z,65.60
2023-04-26T21:33:09.746Z,66.48
2023-04-26T21:38:14.245Z,67.00
2023-04-26T21:43:20.189Z,67.48
2023-04-26T21:48:26.466Z,67.58
2023-04-26T21:53:30.748Z,67.89
2023-04-26T21:58:35.233Z,67.94
2023-04-26T22:03:41.407Z,68.58
2023-04-26T22:08:45.896Z,67.38
2023-04-26T22:13:50.185Z,68.32
2023-04-26T22:18:56.205Z,68.33
2023-04-26T22:24:01.333Z,68.31
2023-04-26T22:29:05.670Z,67.84
2023-04-26T22:34:11.665Z,67.86
2023-04-26T22:39:16.270Z,67.71
2023-04-26T22:44:20.439Z,67.93
2023-04-26T22:49:27.008Z,67.35
2023-04-26T22:54:31.428Z,67.40
2023-04-26T22:59:35.895Z,67.30
2023-04-26T23:04:41.680Z,67.49
2023-04-26T23:09:46.259Z,67.92
2023-04-26T23:14:50.874Z,67.59
2023-04-26T23:19:56.680Z,67.82
2023-04-26T23:25:01.296Z,67.89
2023-04-26T23:30:06.499Z,68.36
2023-04-26T23:35:12.579Z,70.39
2023-04-26T23:40:16.942Z,71.49
2023-04-26T23:45:21.156Z,70.82
2023-04-26T23:50:27.130Z,72.16
2023-04-26T23:55:31.708Z,72.89
